Airfield :
LOGIN :

Register | Disclaimer

   EN    FR    IT 

 










Legend :    VFR   Marginal VFR   IFR   Intensive IFR   Very Intensive IFR
Visi :
Ceiling :
>= 8 km
>= 3000ft
5 to 8 km
1000 to 3000 ft
1500m to 5 km
500 to 1000 ft
800 to 1500m
200 to 500 ft
< 800m
< 200 ft
Symbols :   Thunderstorms  Fog  Heavy snow  Heavy precipitations  Wind > 20 kt
SIGMETs :     Misc.  Thunderstorms  Icing  Turbulence  Mountain Waves  Volcanic Ashes






- Airport Elevation : 354 ft
- IATA code : OER


ESNO - Örnsköldsvik

CURRENT METAR :
  • 190650Z AUTO 22006KT 170V250 9999 SCT018/// OVC130/// 15/10 Q1000

EXPIRED METARs :
  • 190620Z AUTO 23004KT 150V260 9999 BKN120/// 14/10 Q1000
  • 190550Z AUTO 23006KT 200V260 9999 OVC120/// 13/10 Q1000
  • 190520Z AUTO 22005KT 9999 FEW068/// BKN088/// OVC120/// 13/11 Q1000
  • 190450Z AUTO VRB02KT 9999 -DZ BKN064/// OVC110/// 13/12 Q1000
  • 190420Z AUTO VRB02KT 9999 SCT061/// OVC082/// 12/12 Q1001
  • 190350Z AUTO VRB02KT 9999 FEW066/// OVC082/// 12/11 Q1001
  • 190320Z AUTO VRB01KT 9000 OVC078/// 10/10 Q1001
  • 190250Z AUTO VRB01KT 8000 FEW001/// BKN076/// 10/10 Q1001
  • 190220Z AUTO VRB01KT 0200 R12/0375N R30/0550N FG VV001 09/09 Q1001

TAF TAF ESNO
Valid from the 19 at 06:00 until the 19 at 10:00 UTC


190530Z 1906/1910 23007KT 9999 -RA BKN060



MET'MAP, your aeronautical weather chart ! - Copyright ORBIFLY December 2007 - Disclaimer

ORBIFLY MET'MAP TEAM :

Programming & Development : Alexandra Zaïnal
Original concept : Baudouin d'Aumeries
Technical & hardware support : Manuel Goepfert
Assistance : Marc-Olivier Méhu




SOURCES & CREDITS :

   NOAA